Time;durP1;ratioP1;P1;durP2;ratioP2;P2;SDS_P1;SDS_P2;PMS_P1;PMS_P2;Temp;Humidity;BMP_temperature;BMP_pressure;BME280_temperature;BME280_humidity;BME280_pressure;Samples;Min_cycle;Max_cycle;Signal;HPM_P1;HPM_P2
2023/05/10 00:01:05;;;;;;;19.60;12.68;;;12.80;99.90;;;;;;5097096;28;20391;-86
2023/05/10 00:03:31;;;;;;;20.20;12.48;;;12.90;99.90;;;;;;5096943;28;20533;-86
2023/05/10 00:05:56;;;;;;;22.15;12.85;;;12.80;99.90;;;;;;5096997;28;20062;-86
2023/05/10 00:08:22;;;;;;;20.48;10.82;;;12.80;99.90;;;;;;5096965;28;20040;-86
2023/05/10 00:10:48;;;;;;;19.70;10.60;;;12.90;99.90;;;;;;5096890;28;20415;-86
2023/05/10 00:13:14;;;;;;;21.92;10.73;;;12.80;99.90;;;;;;5096858;28;20047;-86
2023/05/10 00:15:39;;;;;;;20.10;10.90;;;12.70;99.90;;;;;;5096792;28;20043;-86
2023/05/10 00:18:05;;;;;;;21.35;10.70;;;12.80;99.90;;;;;;5095439;28;20040;-85
2023/05/10 00:20:31;;;;;;;22.77;10.73;;;12.80;99.90;;;;;;5096620;28;20036;-86
2023/05/10 00:22:56;;;;;;;21.05;11.15;;;12.70;99.90;;;;;;5095468;28;20052;-86
2023/05/10 00:25:22;;;;;;;23.20;10.88;;;12.70;99.90;;;;;;5096356;28;20376;-86
2023/05/10 00:27:49;;;;;;;20.50;10.20;;;12.70;99.90;;;;;;5096427;28;20503;-86
2023/05/10 00:30:15;;;;;;;21.88;11.07;;;12.70;99.90;;;;;;5096456;28;20127;-86
2023/05/10 00:32:41;;;;;;;21.67;10.75;;;12.70;99.90;;;;;;5096206;28;20463;-86
2023/05/10 00:35:07;;;;;;;22.20;10.70;;;12.60;99.90;;;;;;5095837;28;20440;-86
2023/05/10 00:37:33;;;;;;;22.27;11.70;;;12.70;99.90;;;;;;5096115;28;20511;-86
2023/05/10 00:39:58;;;;;;;20.55;10.75;;;12.70;99.90;;;;;;5096277;28;20071;-86
2023/05/10 00:42:24;;;;;;;23.83;11.27;;;12.50;99.90;;;;;;5094888;28;20391;-86
2023/05/10 00:44:49;;;;;;;21.00;10.60;;;12.50;99.90;;;;;;5096134;28;20101;-85
2023/05/10 00:47:16;;;;;;;21.65;10.95;;;12.60;99.90;;;;;;5094869;28;20113;-86
2023/05/10 00:49:43;;;;;;;22.38;11.15;;;12.70;99.90;;;;;;5096076;28;20052;-86
2023/05/10 00:52:09;;;;;;;20.13;10.18;;;12.50;99.90;;;;;;5096173;28;20059;-85
2023/05/10 00:54:35;;;;;;;18.25;9.85;;;12.50;99.90;;;;;;5095838;28;20499;-85
2023/05/10 00:57:01;;;;;;;20.77;10.57;;;12.50;99.90;;;;;;5096045;28;20043;-85
2023/05/10 00:59:26;;;;;;;17.27;9.90;;;12.50;99.90;;;;;;5096011;28;20109;-85
2023/05/10 01:01:53;;;;;;;15.85;9.60;;;12.50;99.90;;;;;;5095879;28;20123;-85
2023/05/10 01:04:25;;;;;;;14.57;9.18;;;12.60;99.90;;;;;;5094487;28;20059;-85
2023/05/10 01:06:51;;;;;;;15.35;9.18;;;12.60;99.90;;;;;;5094668;28;20100;-85
2023/05/10 01:09:17;;;;;;;14.63;8.63;;;12.50;99.90;;;;;;5094669;28;20056;-85
2023/05/10 01:11:44;;;;;;;13.20;8.35;;;12.60;99.90;;;;;;5094406;28;20119;-85
2023/05/10 01:14:10;;;;;;;14.35;8.63;;;12.40;99.90;;;;;;5094283;28;20079;-85
2023/05/10 01:16:40;;;;;;;13.35;8.57;;;12.40;99.90;;;;;;5095634;28;20075;-85
2023/05/10 01:19:22;;;;;;;13.07;8.82;;;12.60;99.90;;;;;;5094082;28;20492;-85
2023/05/10 01:22:16;;;;;;;15.02;9.35;;;12.50;99.90;;;;;;5095580;28;20119;-86
2023/05/10 01:25:21;;;;;;;12.18;7.88;;;12.50;99.90;;;;;;5095240;28;20064;-85
2023/05/10 01:28:30;;;;;;;11.48;8.13;;;12.50;99.90;;;;;;5095443;28;20054;-86
2023/05/10 01:31:07;;;;;;;12.05;7.93;;;12.50;99.90;;;;;;5094892;28;20069;-86
2023/05/10 01:33:45;;;;;;;12.52;8.45;;;12.40;99.90;;;;;;5094963;28;20119;-85
2023/05/10 01:36:25;;;;;;;12.85;9.13;;;12.40;99.90;;;;;;5095189;28;20040;-85
2023/05/10 01:39:24;;;;;;;13.43;8.20;;;12.30;99.90;;;;;;5095230;28;20036;-86
2023/05/10 01:41:57;;;;;;;11.13;7.53;;;12.30;99.90;;;;;;5089350;28;20056;-85
2023/05/10 01:44:38;;;;;;;11.48;7.93;;;12.50;99.90;;;;;;5095053;28;20044;-86
2023/05/10 01:47:09;;;;;;;13.85;7.57;;;12.30;99.90;;;;;;5092914;28;20052;-85
2023/05/10 01:49:46;;;;;;;10.30;7.40;;;12.50;99.90;;;;;;5094827;28;20078;-85
2023/05/10 01:52:15;;;;;;;9.30;7.57;;;12.30;99.90;;;;;;5094949;28;20089;-84
2023/05/10 01:54:53;;;;;;;8.45;6.90;;;12.30;99.90;;;;;;5093680;28;20126;-85
2023/05/10 01:57:22;;;;;;;10.00;6.57;;;12.40;99.90;;;;;;5094949;28;20052;-85
2023/05/10 01:59:50;;;;;;;8.60;7.10;;;12.40;99.90;;;;;;5094785;28;20101;-85
2023/05/10 02:02:19;;;;;;;9.45;7.72;;;12.20;99.90;;;;;;5093318;28;20044;-85
2023/05/10 02:04:47;;;;;;;8.48;7.00;;;12.30;99.90;;;;;;5093470;28;20134;-85
2023/05/10 02:07:14;;;;;;;9.15;7.78;;;12.30;99.90;;;;;;5094459;28;20056;-85
2023/05/10 02:09:44;;;;;;;10.88;7.90;;;12.30;99.90;;;;;;5094646;28;20089;-85
2023/05/10 02:12:12;;;;;;;11.50;8.23;;;12.30;99.90;;;;;;5094445;28;20481;-85
2023/05/10 02:14:40;;;;;;;9.25;7.82;;;12.20;99.90;;;;;;5094532;28;20032;-85
2023/05/10 02:17:07;;;;;;;10.00;7.72;;;12.30;99.90;;;;;;5094399;28;20101;-85
2023/05/10 02:19:35;;;;;;;8.77;7.15;;;12.40;99.90;;;;;;5093179;28;20372;-85
2023/05/10 02:22:03;;;;;;;8.00;6.40;;;12.40;99.90;;;;;;5092960;28;20461;-85
2023/05/10 02:24:30;;;;;;;7.97;6.43;;;12.40;99.90;;;;;;5092610;28;20048;-85
2023/05/10 02:26:57;;;;;;;5.90;4.72;;;12.30;99.90;;;;;;5094473;28;20040;-85
2023/05/10 02:29:24;;;;;;;5.47;4.45;;;12.30;99.90;;;;;;5094280;28;20044;-85
2023/05/10 02:31:53;;;;;;;4.70;3.88;;;12.30;99.90;;;;;;5094240;28;20126;-85
2023/05/10 02:34:21;;;;;;;6.38;4.93;;;12.30;99.90;;;;;;5094052;28;20083;-85
2023/05/10 02:36:47;;;;;;;7.43;5.65;;;12.30;99.90;;;;;;5094145;28;20074;-85
2023/05/10 02:39:15;;;;;;;6.28;5.28;;;12.30;99.90;;;;;;5092787;28;20052;-85
2023/05/10 02:41:43;;;;;;;6.90;5.35;;;12.20;99.90;;;;;;5092835;28;20055;-85
2023/05/10 02:44:10;;;;;;;10.18;6.18;;;12.30;99.90;;;;;;5093932;28;20055;-85
2023/05/10 02:46:37;;;;;;;6.35;5.38;;;12.20;99.90;;;;;;5094073;28;20040;-85
2023/05/10 02:49:03;;;;;;;8.38;6.18;;;12.30;99.90;;;;;;5093797;28;20052;-85
2023/05/10 02:51:31;;;;;;;7.38;6.18;;;12.30;99.90;;;;;;5093953;28;20039;-85
2023/05/10 02:54:01;;;;;;;7.72;6.25;;;12.20;99.90;;;;;;5093798;28;20475;-85
2023/05/10 02:56:34;;;;;;;8.45;7.13;;;12.20;99.90;;;;;;5093803;28;20086;-85
2023/05/10 02:59:00;;;;;;;8.60;7.18;;;12.10;99.90;;;;;;5092720;28;20062;-85
2023/05/10 03:01:25;;;;;;;8.93;7.75;;;12.10;99.90;;;;;;5093798;28;20036;-85
2023/05/10 03:03:51;;;;;;;9.05;7.60;;;12.30;99.90;;;;;;5093580;28;20047;-85
2023/05/10 03:06:16;;;;;;;8.70;6.25;;;12.20;99.90;;;;;;5092621;28;20089;-85
2023/05/10 03:08:44;;;;;;;7.20;5.45;;;12.10;99.90;;;;;;5093713;28;20422;-85
2023/05/10 03:11:12;;;;;;;7.45;4.63;;;12.10;99.90;;;;;;5092481;28;20047;-85
2023/05/10 03:13:54;;;;;;;6.60;5.18;;;12.20;99.90;;;;;;5093645;28;20048;-85
2023/05/10 03:16:28;;;;;;;5.60;4.03;;;12.20;99.90;;;;;;5093746;28;20048;-85
2023/05/10 03:19:12;;;;;;;6.82;5.47;;;12.10;99.90;;;;;;5092380;28;20086;-84
2023/05/10 03:21:41;;;;;;;6.15;4.57;;;12.10;99.90;;;;;;5092290;28;20395;-85
2023/05/10 03:24:08;;;;;;;6.45;5.35;;;12.10;99.90;;;;;;5092301;28;20052;-85
2023/05/10 03:26:36;;;;;;;5.95;4.43;;;12.10;99.90;;;;;;5092016;28;20044;-85
2023/05/10 03:29:07;;;;;;;5.57;4.22;;;12.20;99.90;;;;;;5093581;28;20166;-85
2023/05/10 03:31:33;;;;;;;7.75;5.20;;;12.10;99.90;;;;;;5092488;28;20048;-85
2023/05/10 03:33:59;;;;;;;6.18;4.85;;;12.00;99.90;;;;;;5092285;28;20051;-85
2023/05/10 03:36:24;;;;;;;6.40;4.55;;;12.00;99.90;;;;;;5093436;28;20051;-85
2023/05/10 03:38:50;;;;;;;6.13;4.70;;;12.10;99.90;;;;;;5093488;28;20063;-85
2023/05/10 03:41:16;;;;;;;4.45;3.10;;;12.00;99.90;;;;;;5093456;28;20427;-85
2023/05/10 03:43:41;;;;;;;4.90;3.40;;;12.00;99.90;;;;;;5093366;28;20480;-85
2023/05/10 03:46:07;;;;;;;6.25;4.43;;;12.10;99.90;;;;;;5093264;28;20040;-85
2023/05/10 03:48:33;;;;;;;6.93;5.00;;;12.10;99.90;;;;;;5092360;28;20047;-85
2023/05/10 03:50:59;;;;;;;7.45;5.63;;;12.00;99.90;;;;;;5093327;28;20066;-85
2023/05/10 03:53:25;;;;;;;10.18;7.35;;;12.10;99.90;;;;;;5093156;28;20487;-85
2023/05/10 03:55:50;;;;;;;10.15;7.47;;;12.00;99.90;;;;;;5091968;28;20040;-85
2023/05/10 03:58:16;;;;;;;10.48;7.85;;;12.10;99.90;;;;;;5091958;28;20048;-85
2023/05/10 04:00:44;;;;;;;7.18;5.40;;;12.10;99.90;;;;;;5093120;28;20048;-85
2023/05/10 04:03:13;;;;;;;5.43;4.07;;;12.10;99.90;;;;;;5093104;28;20040;-85
2023/05/10 04:05:39;;;;;;;5.18;3.65;;;12.00;99.90;;;;;;5091775;28;20044;-85
2023/05/10 04:08:05;;;;;;;5.82;3.42;;;12.10;99.90;;;;;;5093221;28;20033;-85
2023/05/10 04:10:32;;;;;;;5.00;3.60;;;12.00;99.90;;;;;;5094917;28;20059;-85
2023/05/10 04:12:58;;;;;;;3.70;2.47;;;12.00;99.90;;;;;;5095593;28;20396;-86
2023/05/10 04:15:23;;;;;;;3.65;2.20;;;12.10;99.90;;;;;;5096713;28;20471;-86
2023/05/10 04:17:50;;;;;;;3.35;2.28;;;12.20;99.90;;;;;;5095540;28;20055;-86
2023/05/10 04:20:15;;;;;;;4.40;3.03;;;12.10;99.90;;;;;;5095095;28;20093;-86
2023/05/10 04:22:41;;;;;;;5.32;3.75;;;12.10;99.90;;;;;;5094641;28;20048;-86
2023/05/10 04:25:08;;;;;;;4.78;3.20;;;12.00;99.90;;;;;;5093974;28;20415;-86
2023/05/10 04:27:35;;;;;;;4.95;3.35;;;12.10;99.90;;;;;;5096160;28;20550;-86
2023/05/10 04:30:01;;;;;;;3.90;2.38;;;12.00;99.90;;;;;;5096513;28;20044;-87
2023/05/10 04:32:26;;;;;;;3.28;2.28;;;12.00;99.90;;;;;;5096075;28;20032;-86
2023/05/10 04:34:52;;;;;;;4.55;2.08;;;12.10;99.90;;;;;;5096337;28;20059;-86
2023/05/10 04:37:19;;;;;;;4.95;2.88;;;12.10;99.90;;;;;;5096356;28;20036;-86
2023/05/10 04:39:44;;;;;;;4.53;2.88;;;12.00;99.90;;;;;;5096312;28;20050;-85
2023/05/10 04:42:11;;;;;;;5.78;3.38;;;12.10;99.90;;;;;;5095907;28;20044;-85
2023/05/10 04:44:36;;;;;;;4.03;2.30;;;12.10;99.90;;;;;;5094709;28;20122;-85
2023/05/10 04:47:02;;;;;;;4.38;2.83;;;12.10;99.90;;;;;;5094877;28;20135;-85
2023/05/10 04:49:29;;;;;;;4.32;2.95;;;12.10;99.90;;;;;;5096055;28;20051;-85
2023/05/10 04:51:55;;;;;;;4.97;3.60;;;12.10;99.90;;;;;;5094464;28;20089;-85
2023/05/10 04:54:21;;;;;;;4.15;3.00;;;12.10;99.90;;;;;;5095978;28;20039;-85
2023/05/10 04:56:47;;;;;;;3.97;2.70;;;12.10;99.90;;;;;;5095796;28;20384;-85
2023/05/10 04:59:12;;;;;;;2.95;1.98;;;12.10;99.90;;;;;;5094719;28;20085;-86
2023/05/10 05:01:38;;;;;;;3.42;1.63;;;12.10;99.90;;;;;;5095449;28;20043;-85
2023/05/10 05:04:04;;;;;;;3.28;1.77;;;12.10;99.90;;;;;;5094222;28;20505;-85
2023/05/10 05:06:29;;;;;;;2.78;1.70;;;12.10;99.90;;;;;;5094265;28;20040;-85
2023/05/10 05:08:55;;;;;;;3.10;1.70;;;12.10;99.90;;;;;;5095620;28;20089;-86
2023/05/10 05:11:21;;;;;;;3.63;2.53;;;12.00;99.90;;;;;;5095647;28;20479;-85
2023/05/10 05:13:47;;;;;;;3.47;2.20;;;12.00;99.90;;;;;;5095364;28;20036;-85
2023/05/10 05:16:13;;;;;;;4.10;3.10;;;12.00;99.90;;;;;;5093994;28;20403;-86
2023/05/10 05:18:38;;;;;;;4.95;3.70;;;12.00;99.90;;;;;;5095249;28;20133;-85
2023/05/10 05:21:15;;;;;;;6.63;4.15;;;12.10;99.90;;;;;;5094554;28;20577;-85
2023/05/10 05:23:40;;;;;;;6.35;5.05;;;12.00;99.90;;;;;;5094956;28;20468;-85
2023/05/10 05:26:12;;;;;;;7.47;5.45;;;12.10;99.90;;;;;;5094869;28;20047;-85
2023/05/10 05:28:40;;;;;;;7.80;5.70;;;12.00;99.90;;;;;;5094939;28;20511;-85
2023/05/10 05:31:09;;;;;;;8.25;5.75;;;12.00;99.90;;;;;;5093715;28;20047;-85
2023/05/10 05:33:35;;;;;;;8.15;5.88;;;11.90;99.90;;;;;;5095307;28;20083;-85
2023/05/10 05:36:02;;;;;;;6.25;4.15;;;12.00;99.90;;;;;;5095167;28;20064;-86
2023/05/10 05:38:27;;;;;;;9.18;6.40;;;12.00;99.90;;;;;;5095088;28;20047;-86
2023/05/10 05:40:53;;;;;;;9.55;6.43;;;11.90;99.90;;;;;;5095036;28;20051;-85
2023/05/10 05:43:19;;;;;;;7.90;6.03;;;11.90;99.90;;;;;;5093395;28;20048;-86
2023/05/10 05:45:44;;;;;;;6.70;5.35;;;11.90;99.90;;;;;;5094897;28;20044;-85
2023/05/10 05:48:10;;;;;;;7.57;4.53;;;11.90;99.90;;;;;;5094886;28;20040;-84
2023/05/10 05:50:36;;;;;;;6.53;5.47;;;11.90;99.90;;;;;;5093353;28;20051;-84
2023/05/10 05:53:02;;;;;;;8.18;6.28;;;11.90;99.90;;;;;;5094608;28;20044;-85
2023/05/10 05:55:27;;;;;;;7.93;5.32;;;11.90;99.90;;;;;;5094821;28;20047;-84
2023/05/10 05:57:53;;;;;;;10.63;6.93;;;11.90;99.90;;;;;;5093434;28;20472;-85
2023/05/10 06:00:19;;;;;;;10.25;6.38;;;11.90;99.90;;;;;;5093466;28;20051;-84
2023/05/10 06:02:45;;;;;;;9.48;8.30;;;11.90;99.90;;;;;;5094641;28;20107;-84
2023/05/10 06:05:10;;;;;;;9.35;6.38;;;11.90;99.90;;;;;;5094405;28;20193;-85
2023/05/10 06:07:36;;;;;;;7.55;5.90;;;11.90;99.90;;;;;;5093632;28;20130;-85
2023/05/10 06:10:02;;;;;;;9.20;5.63;;;11.90;99.90;;;;;;5093359;28;20036;-84
2023/05/10 06:12:28;;;;;;;5.55;3.38;;;11.90;99.90;;;;;;5093362;28;20174;-85
2023/05/10 06:14:54;;;;;;;5.32;3.63;;;12.00;99.90;;;;;;5093568;28;20131;-85
2023/05/10 06:17:19;;;;;;;6.32;4.68;;;11.90;99.90;;;;;;5093075;28;20128;-85
2023/05/10 06:19:45;;;;;;;5.15;3.63;;;11.90;99.90;;;;;;5094389;28;20051;-84
2023/05/10 06:22:11;;;;;;;5.70;3.28;;;11.90;99.90;;;;;;5094349;28;20096;-84
2023/05/10 06:24:36;;;;;;;5.45;3.45;;;11.90;99.90;;;;;;5094494;28;20058;-84
2023/05/10 06:27:02;;;;;;;4.18;2.42;;;11.90;99.90;;;;;;5094480;28;20383;-84
2023/05/10 06:29:28;;;;;;;4.32;2.90;;;12.00;99.90;;;;;;5088604;28;20472;-84
2023/05/10 06:31:54;;;;;;;3.47;2.58;;;12.00;99.90;;;;;;5085926;28;20042;-84
2023/05/10 06:34:20;;;;;;;4.70;3.13;;;12.10;99.90;;;;;;5093626;28;20048;-85
2023/05/10 06:36:45;;;;;;;5.38;3.40;;;12.00;99.90;;;;;;5093810;28;20052;-84
2023/05/10 06:39:11;;;;;;;4.22;2.92;;;11.90;99.90;;;;;;5093778;28;20044;-85
2023/05/10 06:41:37;;;;;;;4.50;2.25;;;12.00;99.90;;;;;;5093551;28;20070;-84
2023/05/10 06:44:03;;;;;;;3.65;2.20;;;12.00;99.90;;;;;;5092201;28;20496;-88
2023/05/10 06:46:29;;;;;;;4.35;3.10;;;12.00;99.90;;;;;;5126512;27;20047;-84
2023/05/10 06:48:55;;;;;;;3.30;2.35;;;12.00;99.90;;;;;;5094355;28;20047;-85
2023/05/10 06:51:21;;;;;;;5.32;3.03;;;12.00;99.90;;;;;;5093750;28;20127;-86
2023/05/10 06:53:47;;;;;;;6.38;3.35;;;12.10;99.90;;;;;;5092580;28;20054;-88
2023/05/10 06:56:13;;;;;;;6.45;3.70;;;12.10;99.90;;;;;;5125826;27;20047;-86
2023/05/10 06:58:38;;;;;;;4.72;2.95;;;12.10;99.90;;;;;;5093543;28;20040;-85
2023/05/10 07:01:05;;;;;;;4.45;3.00;;;12.20;99.90;;;;;;5093446;28;20127;-86
2023/05/10 07:03:31;;;;;;;3.72;2.42;;;12.20;99.90;;;;;;5093421;28;20475;-85
2023/05/10 07:06:04;;;;;;;3.20;2.28;;;12.10;99.90;;;;;;5093789;28;20517;-85
2023/05/10 07:08:33;;;;;;;4.15;2.78;;;12.20;99.90;;;;;;5093497;28;20081;-86
2023/05/10 07:11:04;;;;;;;4.80;3.33;;;12.20;99.90;;;;;;5093416;28;20076;-86
2023/05/10 07:13:33;;;;;;;5.22;3.45;;;12.20;99.90;;;;;;5091920;28;20048;-86
2023/05/10 07:16:00;;;;;;;4.55;3.30;;;12.20;99.90;;;;;;5093236;28;20416;-85
2023/05/10 07:18:26;;;;;;;4.78;3.20;;;12.30;99.90;;;;;;5093514;28;20135;-86
2023/05/10 07:20:52;;;;;;;6.20;3.45;;;12.20;99.90;;;;;;5092394;28;20384;-85
2023/05/10 07:23:18;;;;;;;4.82;2.83;;;12.20;99.90;;;;;;5092108;28;20384;-86
2023/05/10 07:25:54;;;;;;;4.38;2.55;;;12.20;99.90;;;;;;5092960;28;20060;-86
2023/05/10 07:28:21;;;;;;;5.80;3.42;;;12.10;99.90;;;;;;5091809;28;20058;-86
2023/05/10 07:30:47;;;;;;;6.90;4.07;;;12.20;99.90;;;;;;5092998;28;20089;-85
2023/05/10 07:33:14;;;;;;;6.90;5.30;;;12.20;99.90;;;;;;5092002;28;20060;-85
2023/05/10 07:35:40;;;;;;;7.07;5.50;;;12.20;99.90;;;;;;5092790;28;20040;-84
2023/05/10 07:38:06;;;;;;;9.45;5.72;;;12.30;99.90;;;;;;5094544;28;20442;-84
2023/05/10 07:40:32;;;;;;;6.65;4.18;;;12.30;99.90;;;;;;5092391;28;20081;-85
2023/05/10 07:42:58;;;;;;;5.43;2.85;;;12.20;99.90;;;;;;5092940;28;20422;-84
2023/05/10 07:45:23;;;;;;;7.80;4.72;;;12.40;99.90;;;;;;5094712;28;20059;-84
2023/05/10 07:47:50;;;;;;;6.30;4.00;;;12.30;99.90;;;;;;5097183;28;20040;-85
2023/05/10 07:50:15;;;;;;;4.85;3.25;;;12.30;99.90;;;;;;5095892;28;20044;-86
2023/05/10 07:52:41;;;;;;;8.20;3.40;;;12.40;99.90;;;;;;5097045;28;20107;-85
2023/05/10 07:55:07;;;;;;;7.38;3.70;;;12.50;99.90;;;;;;5096863;28;20123;-85
2023/05/10 07:57:34;;;;;;;7.32;3.25;;;12.50;99.90;;;;;;5096848;28;20050;-85
2023/05/10 08:00:00;;;;;;;5.68;3.45;;;12.40;99.90;;;;;;5095740;28;20144;-85
2023/05/10 08:02:25;;;;;;;8.02;4.57;;;12.50;99.90;;;;;;5096945;28;20547;-85
2023/05/10 08:04:51;;;;;;;8.52;5.03;;;12.40;99.90;;;;;;5095198;28;20392;-85
2023/05/10 08:07:17;;;;;;;8.25;3.17;;;12.50;99.90;;;;;;5095577;28;20793;-85
2023/05/10 08:09:43;;;;;;;7.78;4.65;;;12.40;99.90;;;;;;5096759;28;20087;-85
2023/05/10 08:12:08;;;;;;;7.45;4.30;;;12.40;99.90;;;;;;5095231;28;20130;-86
2023/05/10 08:14:36;;;;;;;9.82;4.63;;;12.40;99.90;;;;;;5096452;28;20118;-85
2023/05/10 08:17:03;;;;;;;8.05;4.57;;;12.30;99.90;;;;;;5096507;28;20483;-85
2023/05/10 08:19:28;;;;;;;7.32;4.00;;;12.30;99.90;;;;;;5095062;28;20048;-85
2023/05/10 08:21:55;;;;;;;8.45;4.60;;;12.20;99.90;;;;;;5095223;28;20059;-85
2023/05/10 08:24:21;;;;;;;10.02;5.35;;;12.30;99.90;;;;;;5094888;28;20058;-85
2023/05/10 08:26:47;;;;;;;8.60;4.35;;;12.30;99.90;;;;;;5096159;28;20503;-85
2023/05/10 08:29:14;;;;;;;7.65;4.22;;;12.30;99.90;;;;;;5096317;28;20091;-85
2023/05/10 08:31:39;;;;;;;8.93;5.35;;;12.40;99.90;;;;;;5094886;28;20079;-85
2023/05/10 08:34:05;;;;;;;5.57;3.50;;;12.30;99.90;;;;;;5094697;28;20076;-85
2023/05/10 08:36:31;;;;;;;5.55;3.20;;;12.30;99.90;;;;;;5094834;28;20040;-85
2023/05/10 08:38:58;;;;;;;5.70;3.17;;;12.40;99.90;;;;;;5096216;28;20052;-85
2023/05/10 08:41:25;;;;;;;7.22;3.58;;;12.40;99.90;;;;;;5096054;28;20044;-85
2023/05/10 08:43:52;;;;;;;8.43;4.40;;;12.40;99.90;;;;;;5094605;28;20066;-85
2023/05/10 08:46:20;;;;;;;5.65;3.40;;;12.40;99.90;;;;;;5096004;28;20036;-85
2023/05/10 08:48:47;;;;;;;8.77;3.50;;;12.60;99.90;;;;;;5095750;28;20488;-85
2023/05/10 08:51:42;;;;;;;6.40;3.83;;;12.60;99.90;;;;;;5095751;28;20052;-86
2023/05/10 08:54:08;;;;;;;5.32;3.00;;;12.60;99.90;;;;;;5093959;28;20055;-85
2023/05/10 08:56:33;;;;;;;4.80;2.47;;;12.60;99.90;;;;;;5095224;28;20052;-85
2023/05/10 08:59:00;;;;;;;4.50;2.22;;;12.70;99.90;;;;;;5094351;28;20051;-85
2023/05/10 09:01:27;;;;;;;4.38;2.22;;;12.80;99.90;;;;;;5094253;28;20070;-85
2023/05/10 09:03:53;;;;;;;6.70;2.75;;;12.80;99.90;;;;;;5094416;28;20492;-85
2023/05/10 09:06:18;;;;;;;5.68;3.30;;;12.90;99.90;;;;;;5094137;28;20058;-85
2023/05/10 09:08:45;;;;;;;5.22;3.08;;;13.10;99.90;;;;;;5095619;28;20044;-86
2023/05/10 09:11:12;;;;;;;5.60;2.92;;;13.00;99.90;;;;;;5094053;28;20479;-85
2023/05/10 09:13:38;;;;;;;7.35;2.95;;;13.20;99.90;;;;;;5094023;28;20480;-85
2023/05/10 09:16:04;;;;;;;5.13;2.85;;;13.30;99.90;;;;;;5095222;28;20802;-85
2023/05/10 09:18:30;;;;;;;6.43;2.80;;;13.30;99.90;;;;;;5094938;28;20062;-86
2023/05/10 09:20:56;;;;;;;6.32;3.28;;;13.40;99.90;;;;;;5094577;28;20470;-85
2023/05/10 09:23:22;;;;;;;6.40;3.00;;;13.60;99.90;;;;;;5094360;28;20518;-85
2023/05/10 09:25:51;;;;;;;5.53;3.08;;;13.60;99.90;;;;;;5093791;28;20082;-86
2023/05/10 09:28:18;;;;;;;4.68;2.78;;;13.50;99.90;;;;;;5095523;28;20546;-85
2023/05/10 09:30:53;;;;;;;5.63;2.53;;;13.50;99.90;;;;;;5093970;28;20088;-86
2023/05/10 09:33:19;;;;;;;6.65;2.90;;;13.50;99.90;;;;;;5095042;28;20381;-86
2023/05/10 09:35:44;;;;;;;5.45;3.05;;;13.40;99.90;;;;;;5093587;28;20108;-86
2023/05/10 09:38:11;;;;;;;5.38;3.08;;;13.30;99.90;;;;;;5094742;28;20036;-86
2023/05/10 09:40:36;;;;;;;6.75;3.50;;;13.30;99.90;;;;;;5094880;28;20161;-86
2023/05/10 09:43:13;;;;;;;6.75;3.65;;;13.30;99.90;;;;;;5093395;28;20118;-85
2023/05/10 09:45:41;;;;;;;8.10;3.97;;;13.40;99.90;;;;;;5093685;28;20072;-85
2023/05/10 09:48:06;;;;;;;8.15;4.53;;;13.20;99.90;;;;;;5094706;28;20092;-86
2023/05/10 09:50:33;;;;;;;6.82;3.97;;;13.20;99.90;;;;;;5094695;28;20122;-86
2023/05/10 09:53:02;;;;;;;7.30;4.47;;;13.20;99.90;;;;;;5093441;28;20043;-86
2023/05/10 09:55:44;;;;;;;7.65;4.05;;;13.30;99.90;;;;;;5094737;28;20048;-86
2023/05/10 09:58:10;;;;;;;8.63;4.68;;;13.30;99.90;;;;;;5093567;28;20044;-86
2023/05/10 10:00:38;;;;;;;7.22;3.75;;;13.40;99.90;;;;;;5094598;28;20040;-86
2023/05/10 10:03:05;;;;;;;8.15;3.80;;;13.30;99.90;;;;;;5094508;28;20071;-86
2023/05/10 10:05:32;;;;;;;7.93;3.92;;;13.30;99.90;;;;;;5094536;28;20052;-86
2023/05/10 10:07:59;;;;;;;6.32;3.55;;;13.30;99.90;;;;;;5092321;28;20040;-86
2023/05/10 10:10:25;;;;;;;6.53;4.28;;;13.30;99.90;;;;;;5093035;28;20044;-86
2023/05/10 10:12:52;;;;;;;10.68;5.40;;;13.40;99.90;;;;;;5092968;28;20039;-86
2023/05/10 10:15:18;;;;;;;8.57;5.05;;;13.40;99.90;;;;;;5092939;28;20063;-86
2023/05/10 10:17:45;;;;;;;7.28;5.05;;;13.40;99.90;;;;;;5094012;28;20407;-86
2023/05/10 10:20:11;;;;;;;11.15;5.40;;;13.30;99.90;;;;;;5092770;28;20059;-85
2023/05/10 10:22:37;;;;;;;11.77;6.00;;;13.30;99.90;;;;;;5092821;28;20043;-86
2023/05/10 10:25:07;;;;;;;9.63;5.28;;;13.30;99.90;;;;;;5092563;28;20143;-85
2023/05/10 10:27:50;;;;;;;11.40;6.90;;;13.20;99.90;;;;;;5092684;28;20474;-86
2023/05/10 10:30:34;;;;;;;12.60;6.35;;;13.30;99.90;;;;;;5093015;28;20040;-86
2023/05/10 10:33:21;;;;;;;12.32;7.18;;;13.30;99.90;;;;;;5092690;28;20052;-86
2023/05/10 10:35:47;;;;;;;9.20;5.93;;;13.30;99.90;;;;;;5092962;28;20040;-86
2023/05/10 10:38:13;;;;;;;10.32;5.85;;;13.20;99.90;;;;;;5094076;28;20110;-86
2023/05/10 10:40:40;;;;;;;10.35;6.15;;;13.30;99.90;;;;;;5093793;28;20055;-86
2023/05/10 10:43:28;;;;;;;10.80;6.18;;;13.40;99.90;;;;;;5093908;28;20047;-84
2023/05/10 10:46:14;;;;;;;13.60;7.28;;;13.40;99.90;;;;;;5092394;28;20063;-86
2023/05/10 10:48:43;;;;;;;10.15;6.22;;;13.30;99.90;;;;;;5092484;28;20044;-87
2023/05/10 10:51:09;;;;;;;11.27;7.15;;;13.40;99.90;;;;;;5093904;28;20093;-87
2023/05/10 10:53:37;;;;;;;14.27;7.05;;;13.50;99.90;;;;;;5093558;28;20044;-86
2023/05/10 10:56:09;;;;;;;14.63;7.03;;;13.50;99.90;;;;;;5093601;28;20131;-86
2023/05/10 10:58:37;;;;;;;17.13;7.20;;;13.50;99.90;;;;;;5094126;28;20047;-87
2023/05/10 11:01:17;;;;;;;17.95;8.57;;;13.50;99.90;;;;;;5092382;28;20066;-80
2023/05/10 11:04:04;;;;;;;15.48;8.35;;;13.60;99.90;;;;;;5093320;28;20048;-81
2023/05/10 11:06:34;;;;;;;19.30;8.63;;;13.50;99.90;;;;;;5092198;28;20044;-86
2023/05/10 11:09:06;;;;;;;16.40;8.88;;;13.50;99.90;;;;;;5093564;28;20480;-85
2023/05/10 11:11:32;;;;;;;18.15;8.75;;;13.60;99.90;;;;;;5093926;28;20036;-86
2023/05/10 11:14:04;;;;;;;15.35;9.07;;;13.60;99.90;;;;;;5092026;28;20044;-86
2023/05/10 11:16:44;;;;;;;13.85;8.77;;;13.50;99.90;;;;;;5093681;28;20146;-86
2023/05/10 11:19:17;;;;;;;13.95;8.27;;;13.60;99.90;;;;;;5094902;28;20040;-87
2023/05/10 11:21:48;;;;;;;15.63;8.60;;;13.60;99.90;;;;;;5096337;28;20055;-86
2023/05/10 11:24:25;;;;;;;11.93;8.10;;;13.50;99.90;;;;;;5097338;28;20055;-88
2023/05/10 11:26:51;;;;;;;11.18;8.13;;;13.60;99.90;;;;;;5097594;28;20087;-87
2023/05/10 11:29:17;;;;;;;11.27;7.72;;;13.60;99.90;;;;;;5095980;28;20133;-87
2023/05/10 11:31:47;;;;;;;11.43;7.55;;;13.60;99.90;;;;;;5097222;28;20083;-87
2023/05/10 11:34:24;;;;;;;12.40;7.22;;;13.50;99.90;;;;;;5096227;28;20117;-87
2023/05/10 11:36:54;;;;;;;12.10;7.63;;;13.60;99.90;;;;;;5097251;28;20063;-86
2023/05/10 11:39:21;;;;;;;12.30;7.63;;;13.80;99.90;;;;;;5097100;28;20051;-86
2023/05/10 11:41:50;;;;;;;9.07;6.68;;;13.70;99.90;;;;;;5096935;28;20073;-86
2023/05/10 11:44:16;;;;;;;12.48;7.55;;;13.80;99.90;;;;;;5097329;28;20052;-87
2023/05/10 11:46:42;;;;;;;12.88;8.13;;;13.90;99.90;;;;;;5097056;28;20044;-86
2023/05/10 11:49:07;;;;;;;11.18;7.38;;;13.80;99.90;;;;;;5096942;28;20051;-86
2023/05/10 11:51:39;;;;;;;13.18;8.50;;;13.80;99.90;;;;;;5097069;28;20411;-86
2023/05/10 11:54:09;;;;;;;11.63;7.50;;;14.00;99.90;;;;;;5097116;28;20054;-86
2023/05/10 11:56:35;;;;;;;11.98;7.95;;;14.00;99.90;;;;;;5095475;28;20082;-86
2023/05/10 11:59:02;;;;;;;11.38;7.63;;;14.00;99.90;;;;;;5096912;28;20043;-85
2023/05/10 12:01:28;;;;;;;11.98;7.90;;;14.10;99.90;;;;;;5096843;28;20048;-86
2023/05/10 12:03:59;;;;;;;12.25;7.82;;;14.20;99.90;;;;;;5096601;28;20079;-86
2023/05/10 12:06:28;;;;;;;13.68;7.55;;;14.20;99.90;;;;;;5096561;28;20477;-85
2023/05/10 12:08:54;;;;;;;11.30;8.07;;;14.10;99.90;;;;;;5096513;28;20047;-86
2023/05/10 12:11:24;;;;;;;13.95;8.43;;;14.20;99.90;;;;;;5096420;28;20048;-86
2023/05/10 12:13:49;;;;;;;11.40;8.15;;;14.20;99.90;;;;;;5096441;28;20044;-86
2023/05/10 12:16:17;;;;;;;11.85;8.20;;;14.40;99.90;;;;;;5096491;28;20039;-85
2023/05/10 12:18:43;;;;;;;11.27;8.00;;;14.50;99.90;;;;;;5095069;28;20484;-86
2023/05/10 12:21:12;;;;;;;10.77;7.30;;;14.70;99.90;;;;;;5096603;28;20040;-86
2023/05/10 12:23:39;;;;;;;13.00;7.65;;;14.60;99.90;;;;;;5096377;28;20052;-85
2023/05/10 12:26:05;;;;;;;11.63;7.75;;;14.90;99.90;;;;;;5094843;28;20518;-85
2023/05/10 12:28:31;;;;;;;11.70;8.25;;;15.00;99.90;;;;;;5096424;28;20036;-85
2023/05/10 12:30:59;;;;;;;12.75;9.13;;;15.20;99.90;;;;;;5095477;28;20040;-86
2023/05/10 12:33:25;;;;;;;12.45;8.20;;;15.20;99.90;;;;;;5096162;28;20048;-84
2023/05/10 12:35:53;;;;;;;12.50;7.93;;;15.10;99.90;;;;;;5094691;28;20048;-87
2023/05/10 12:38:26;;;;;;;11.75;8.38;;;15.10;99.90;;;;;;5094622;28;20040;-86
2023/05/10 12:40:52;;;;;;;11.73;8.27;;;15.30;99.90;;;;;;5094730;28;20040;-86
2023/05/10 12:43:17;;;;;;;12.55;8.20;;;15.50;99.90;;;;;;5094853;28;20178;-86
2023/05/10 12:45:47;;;;;;;13.35;9.32;;;15.50;99.90;;;;;;5095677;28;20506;-86
2023/05/10 12:48:13;;;;;;;15.07;8.38;;;15.50;99.90;;;;;;5096221;28;20044;-85